createdAt,value
2022-11-30T00:01:58.264Z,10.10
2022-11-30T00:04:46.977Z,10.10
2022-11-30T00:07:34.039Z,10.20
2022-11-30T00:10:25.562Z,10.10
2022-11-30T00:13:13.484Z,10.20
2022-11-30T00:16:01.557Z,10.20
2022-11-30T00:18:46.898Z,10.30
2022-11-30T00:21:32.425Z,10.30
2022-11-30T00:24:17.770Z,10.30
2022-11-30T00:27:03.834Z,10.30
2022-11-30T00:29:49.425Z,10.20
2022-11-30T00:32:37.723Z,10.30
2022-11-30T00:35:31.975Z,10.20
2022-11-30T00:38:17.490Z,10.20
2022-11-30T00:41:05.983Z,10.20
2022-11-30T00:43:51.353Z,10.20
2022-11-30T00:46:36.645Z,10.30
2022-11-30T00:49:22.208Z,10.30
2022-11-30T00:52:19.702Z,10.30
2022-11-30T00:55:05.647Z,10.20
2022-11-30T00:57:50.889Z,10.20
2022-11-30T01:00:39.786Z,10.30
2022-11-30T01:03:26.209Z,10.30
2022-11-30T01:06:14.161Z,10.30
2022-11-30T01:09:08.235Z,10.30
2022-11-30T01:11:56.188Z,10.30
2022-11-30T01:14:41.813Z,10.30
2022-11-30T01:17:28.038Z,10.30
2022-11-30T01:20:13.578Z,10.30
2022-11-30T01:22:58.728Z,10.30
2022-11-30T01:25:54.537Z,10.30
2022-11-30T01:28:44.259Z,10.30
2022-11-30T01:31:32.241Z,10.20
2022-11-30T01:34:17.700Z,10.10
2022-11-30T01:37:02.976Z,10.00
2022-11-30T01:39:51.173Z,9.90
2022-11-30T01:42:46.473Z,9.80
2022-11-30T01:45:31.748Z,9.70
2022-11-30T01:48:17.276Z,9.70
2022-11-30T01:51:02.925Z,9.60
2022-11-30T01:53:48.710Z,9.60
2022-11-30T01:56:35.634Z,9.50
2022-11-30T01:59:24.046Z,9.50
2022-11-30T02:02:10.419Z,9.40
2022-11-30T02:04:55.766Z,9.40
2022-11-30T02:07:42.054Z,9.40
2022-11-30T02:10:34.514Z,9.50
2022-11-30T02:13:41.281Z,9.50
2022-11-30T02:16:29.320Z,9.50
2022-11-30T02:19:14.479Z,9.50
2022-11-30T02:22:16.642Z,9.60
2022-11-30T02:25:22.061Z,9.60
2022-11-30T02:28:21.019Z,9.60
2022-11-30T02:31:10.541Z,9.60
2022-11-30T02:33:59.666Z,9.60
2022-11-30T02:36:46.670Z,9.60
2022-11-30T02:39:32.336Z,9.60
2022-11-30T02:42:18.045Z,9.60
2022-11-30T02:45:04.796Z,9.60
2022-11-30T02:47:54.466Z,9.50
2022-11-30T02:50:45.736Z,9.40
2022-11-30T02:53:31.304Z,9.20
2022-11-30T02:56:18.924Z,9.10
2022-11-30T02:59:07.410Z,9.00
2022-11-30T03:01:53.261Z,8.80
2022-11-30T03:04:38.681Z,8.80
2022-11-30T03:07:24.360Z,8.70
2022-11-30T03:10:10.538Z,8.60
2022-11-30T03:13:00.599Z,8.50
2022-11-30T03:15:45.972Z,8.40
2022-11-30T03:18:35.451Z,8.30
2022-11-30T03:21:25.178Z,8.20
2022-11-30T03:24:10.990Z,8.20
2022-11-30T03:26:56.374Z,8.10
2022-11-30T03:29:41.552Z,8.00
2022-11-30T03:32:27.210Z,7.90
2022-11-30T03:35:13.191Z,7.90
2022-11-30T03:38:01.476Z,7.80
2022-11-30T03:40:46.781Z,7.70
2022-11-30T03:43:32.770Z,7.60
2022-11-30T03:46:18.526Z,7.60
2022-11-30T03:49:03.909Z,7.70
2022-11-30T03:51:49.619Z,7.70
2022-11-30T03:54:35.372Z,7.70
2022-11-30T03:57:20.873Z,7.70
2022-11-30T04:00:07.863Z,7.70
2022-11-30T04:02:57.513Z,7.70
2022-11-30T04:05:43.377Z,7.70
2022-11-30T04:08:29.895Z,7.70
2022-11-30T04:11:16.124Z,7.70
2022-11-30T04:14:01.511Z,7.70
2022-11-30T04:16:46.710Z,7.80
2022-11-30T04:19:32.123Z,7.80
2022-11-30T04:22:17.986Z,7.90
2022-11-30T04:25:03.538Z,7.90
2022-11-30T04:27:48.819Z,8.00
2022-11-30T04:30:35.830Z,8.10
2022-11-30T04:33:21.114Z,8.20
2022-11-30T04:36:08.105Z,8.20
2022-11-30T04:38:53.934Z,8.30
2022-11-30T04:41:39.788Z,8.30
2022-11-30T04:44:25.263Z,8.40
2022-11-30T04:47:10.989Z,8.50
2022-11-30T04:49:56.591Z,8.60
2022-11-30T04:52:42.103Z,8.60
2022-11-30T04:55:27.942Z,8.60
2022-11-30T04:58:13.661Z,8.60
2022-11-30T05:01:02.227Z,8.70
2022-11-30T05:03:47.682Z,8.70
2022-11-30T05:06:35.257Z,8.70
2022-11-30T05:09:20.758Z,8.70
2022-11-30T05:12:06.666Z,8.80
2022-11-30T05:14:54.509Z,8.90
2022-11-30T05:17:40.045Z,8.90
2022-11-30T05:20:25.731Z,8.90
2022-11-30T05:23:11.262Z,8.90
2022-11-30T05:26:01.466Z,8.80
2022-11-30T05:28:49.813Z,8.80
2022-11-30T05:31:43.206Z,8.80
2022-11-30T05:34:28.894Z,8.80
2022-11-30T05:37:14.133Z,8.80
2022-11-30T05:40:05.261Z,8.70
2022-11-30T05:43:01.019Z,8.70
2022-11-30T05:45:51.682Z,8.70
2022-11-30T05:48:37.789Z,8.70
2022-11-30T05:51:23.258Z,8.80
2022-11-30T05:54:08.747Z,8.80
2022-11-30T05:56:55.373Z,8.80
2022-11-30T05:59:41.074Z,8.90
2022-11-30T06:02:29.093Z,8.90
2022-11-30T06:05:14.278Z,8.90
2022-11-30T06:08:00.742Z,8.90
2022-11-30T06:10:46.658Z,9.00
2022-11-30T06:13:34.859Z,9.00
2022-11-30T06:16:20.339Z,9.00
2022-11-30T06:19:06.191Z,9.10
2022-11-30T06:21:51.602Z,9.00
2022-11-30T06:24:36.999Z,9.10
2022-11-30T06:27:24.993Z,9.10
2022-11-30T06:30:11.366Z,9.20
2022-11-30T06:32:57.192Z,9.30
2022-11-30T06:35:46.914Z,9.30
2022-11-30T06:38:32.169Z,9.30
2022-11-30T06:41:17.610Z,9.30
2022-11-30T06:44:07.461Z,9.30
2022-11-30T06:46:52.779Z,9.30
2022-11-30T06:49:41.667Z,9.40
2022-11-30T06:52:27.647Z,9.50
2022-11-30T06:55:12.896Z,9.50
2022-11-30T06:58:17.278Z,9.50
2022-11-30T07:01:06.068Z,9.50
2022-11-30T07:03:54.387Z,9.50
2022-11-30T07:06:40.006Z,9.60
2022-11-30T07:09:25.238Z,9.60
2022-11-30T07:12:10.910Z,9.60
2022-11-30T07:14:56.185Z,9.60
2022-11-30T07:17:41.833Z,9.60
2022-11-30T07:20:27.046Z,9.60
2022-11-30T07:23:31.035Z,9.60
2022-11-30T07:26:16.760Z,9.60
2022-11-30T07:29:14.338Z,9.60
2022-11-30T07:31:59.692Z,9.70
2022-11-30T07:34:46.696Z,9.60
2022-11-30T07:37:32.414Z,9.60
2022-11-30T07:40:20.613Z,9.60
2022-11-30T07:43:05.751Z,9.70
2022-11-30T07:45:53.307Z,9.70
2022-11-30T07:48:38.989Z,9.70
2022-11-30T07:51:24.367Z,9.80
2022-11-30T07:54:10.014Z,9.80
2022-11-30T07:56:55.404Z,9.80
2022-11-30T07:59:40.826Z,9.80
2022-11-30T08:02:26.254Z,9.70
2022-11-30T08:05:12.309Z,9.80
2022-11-30T08:07:57.751Z,9.80
2022-11-30T08:10:44.189Z,9.80
2022-11-30T08:13:30.581Z,9.80
2022-11-30T08:16:22.593Z,9.80
2022-11-30T08:19:08.081Z,9.80
2022-11-30T08:21:53.415Z,9.80
2022-11-30T08:24:41.921Z,9.90
2022-11-30T08:27:27.731Z,9.90
2022-11-30T08:30:13.929Z,10.00
2022-11-30T08:32:59.345Z,10.10
2022-11-30T08:35:47.296Z,10.10
2022-11-30T08:38:35.423Z,10.10
2022-11-30T08:41:25.146Z,10.10
2022-11-30T08:44:11.051Z,10.10
2022-11-30T08:46:56.609Z,10.20
2022-11-30T08:49:41.869Z,10.20
2022-11-30T08:52:27.617Z,10.30
2022-11-30T08:55:16.305Z,10.40
2022-11-30T08:58:01.342Z,10.40
2022-11-30T09:03:36.698Z,10.30
2022-11-30T09:06:25.395Z,10.30
2022-11-30T09:09:10.931Z,10.40
2022-11-30T09:11:56.072Z,10.40
2022-11-30T09:14:42.029Z,10.40
2022-11-30T09:17:27.728Z,10.50
2022-11-30T09:20:19.622Z,10.60
2022-11-30T09:23:05.245Z,10.80
2022-11-30T09:25:56.641Z,10.80
2022-11-30T09:28:42.728Z,10.80
2022-11-30T09:31:31.315Z,10.80
2022-11-30T09:34:17.089Z,10.80
2022-11-30T09:37:02.661Z,10.80
2022-11-30T09:39:48.321Z,10.90
2022-11-30T09:43:10.926Z,11.10
2022-11-30T09:46:02.188Z,11.10
2022-11-30T09:49:11.986Z,11.20
2022-11-30T09:52:07.047Z,11.20
2022-11-30T09:54:52.463Z,11.30
2022-11-30T09:57:46.895Z,11.30
2022-11-30T10:00:34.924Z,11.40
2022-11-30T10:03:23.162Z,11.50
2022-11-30T10:06:15.454Z,11.60
2022-11-30T10:09:03.773Z,11.70
2022-11-30T10:12:21.483Z,11.60
2022-11-30T10:15:25.945Z,11.70
2022-11-30T10:18:32.250Z,11.80
2022-11-30T10:22:16.270Z,11.90
2022-11-30T10:25:30.080Z,11.90
2022-11-30T10:28:45.657Z,11.90
2022-11-30T10:31:35.706Z,11.80
2022-11-30T10:34:24.210Z,11.80
2022-11-30T10:37:29.403Z,11.80
2022-11-30T10:40:44.926Z,11.90
2022-11-30T10:44:00.996Z,12.00
2022-11-30T10:47:04.849Z,12.30
2022-11-30T10:49:52.717Z,12.50
2022-11-30T10:52:43.832Z,12.90
2022-11-30T10:55:56.543Z,13.40
2022-11-30T10:58:50.678Z,14.00
2022-11-30T11:01:39.546Z,14.60
2022-11-30T11:04:29.608Z,14.70
2022-11-30T11:07:21.660Z,14.70
2022-11-30T11:10:16.814Z,14.60
2022-11-30T11:13:02.149Z,14.60
2022-11-30T11:16:01.632Z,14.40
2022-11-30T11:18:55.845Z,14.20
2022-11-30T11:21:51.902Z,14.00
2022-11-30T11:24:41.144Z,13.80
2022-11-30T11:27:28.364Z,13.70
2022-11-30T11:30:26.683Z,13.70
2022-11-30T11:33:12.162Z,13.60
2022-11-30T11:36:06.811Z,13.60
2022-11-30T11:38:54.602Z,13.70
2022-11-30T11:41:39.996Z,13.90
2022-11-30T11:44:28.236Z,14.20
2022-11-30T11:47:24.047Z,15.30
2022-11-30T11:50:14.142Z,15.80
2022-11-30T11:53:25.087Z,16.10
2022-11-30T11:56:31.925Z,16.30
2022-11-30T11:59:39.273Z,16.10
2022-11-30T12:02:48.182Z,16.20
2022-11-30T12:05:38.333Z,16.60
2022-11-30T12:08:50.175Z,16.60
2022-11-30T12:11:47.801Z,16.20
2022-11-30T12:14:35.453Z,15.80
2022-11-30T12:17:54.308Z,15.50
2022-11-30T12:20:52.618Z,15.20
2022-11-30T12:23:58.797Z,15.60
2022-11-30T12:27:30.816Z,16.10
2022-11-30T12:30:44.293Z,17.70
2022-11-30T12:33:52.000Z,18.40
2022-11-30T12:36:44.151Z,18.10
2022-11-30T12:40:14.263Z,18.20
2022-11-30T12:43:15.318Z,18.90
2022-11-30T12:46:34.029Z,19.40
2022-11-30T12:49:44.652Z,18.80
2022-11-30T12:52:39.157Z,18.10
2022-11-30T12:55:52.734Z,17.50
2022-11-30T12:58:57.848Z,16.90
2022-11-30T13:02:01.840Z,16.50
2022-11-30T13:05:07.463Z,16.00
2022-11-30T13:08:04.022Z,15.60
2022-11-30T13:10:59.672Z,15.40
2022-11-30T13:13:50.910Z,15.10
2022-11-30T13:16:37.272Z,14.90
2022-11-30T13:19:54.717Z,14.70
2022-11-30T13:22:58.850Z,14.50
2022-11-30T13:26:08.998Z,14.40
2022-11-30T13:29:22.801Z,14.20
2022-11-30T13:32:34.276Z,14.10
2022-11-30T13:35:28.350Z,14.00
2022-11-30T13:38:36.311Z,13.90
2022-11-30T13:41:22.121Z,13.80
2022-11-30T13:44:34.144Z,13.50
2022-11-30T13:47:37.898Z,13.40
2022-11-30T13:50:32.377Z,13.20
2022-11-30T13:53:22.548Z,13.00
2022-11-30T13:56:20.174Z,12.80
2022-11-30T13:59:26.670Z,12.70
2022-11-30T14:02:44.270Z,12.60
2022-11-30T14:05:32.686Z,12.50
2022-11-30T14:08:24.125Z,12.30
2022-11-30T14:11:35.966Z,12.30
2022-11-30T14:14:46.162Z,12.20
2022-11-30T14:17:35.691Z,12.20
2022-11-30T14:20:24.628Z,12.10
2022-11-30T14:23:23.174Z,12.00
2022-11-30T14:26:18.171Z,12.00
2022-11-30T14:29:08.134Z,11.90
2022-11-30T14:32:35.410Z,11.80
2022-11-30T14:35:24.434Z,11.70
2022-11-30T14:38:29.668Z,11.70
2022-11-30T14:41:24.913Z,11.70
2022-11-30T14:44:14.131Z,11.60
2022-11-30T14:47:13.860Z,11.50
2022-11-30T14:50:05.681Z,11.50
2022-11-30T14:53:14.016Z,11.40
2022-11-30T14:56:24.334Z,11.40
2022-11-30T14:59:26.190Z,11.20
2022-11-30T15:02:23.028Z,11.20
2022-11-30T15:05:17.206Z,11.20
2022-11-30T15:08:04.277Z,11.10
2022-11-30T15:10:50.767Z,11.00
2022-11-30T15:13:43.699Z,11.00
2022-11-30T15:16:30.165Z,11.00
2022-11-30T15:19:35.813Z,10.90
2022-11-30T15:22:24.012Z,10.80
2022-11-30T15:25:12.618Z,10.70
2022-11-30T15:27:59.741Z,10.60
2022-11-30T15:30:47.298Z,10.50
2022-11-30T15:33:45.307Z,10.40
2022-11-30T15:36:38.074Z,10.40
2022-11-30T15:39:28.611Z,10.20
2022-11-30T15:42:44.374Z,10.10
2022-11-30T15:45:30.989Z,10.10
2022-11-30T15:48:35.293Z,10.00
2022-11-30T15:51:24.517Z,9.90
2022-11-30T15:54:09.796Z,9.80
2022-11-30T15:56:56.751Z,9.70
2022-11-30T15:59:42.592Z,9.60
2022-11-30T16:02:34.549Z,9.50
2022-11-30T16:05:25.243Z,9.40
2022-11-30T16:08:18.180Z,9.40
2022-11-30T16:11:08.055Z,9.30
2022-11-30T16:13:54.014Z,9.30
2022-11-30T16:16:39.688Z,9.20
2022-11-30T16:19:24.888Z,9.00
2022-11-30T16:22:15.490Z,8.80
2022-11-30T16:25:01.411Z,8.70
2022-11-30T16:27:48.181Z,8.60
2022-11-30T16:30:34.232Z,8.40
2022-11-30T16:33:22.188Z,8.30
2022-11-30T16:36:09.318Z,8.20
2022-11-30T16:39:03.792Z,8.10
2022-11-30T16:41:49.256Z,8.00
2022-11-30T16:44:38.553Z,8.00
2022-11-30T16:47:24.137Z,7.90
2022-11-30T16:50:11.363Z,7.80
2022-11-30T16:52:59.482Z,7.70
2022-11-30T16:55:44.697Z,7.70
2022-11-30T16:58:30.428Z,7.60
2022-11-30T17:01:38.172Z,7.50
2022-11-30T17:04:32.828Z,7.50
2022-11-30T17:07:18.244Z,7.40
2022-11-30T17:10:05.726Z,7.40
2022-11-30T17:12:53.838Z,7.30
2022-11-30T17:15:39.407Z,7.30
2022-11-30T17:18:24.628Z,7.20
2022-11-30T17:21:16.679Z,7.20
2022-11-30T17:24:02.858Z,7.10
2022-11-30T17:26:48.260Z,7.00
2022-11-30T17:29:36.098Z,7.00
2022-11-30T17:32:24.558Z,7.00
2022-11-30T17:35:16.448Z,7.00
2022-11-30T17:38:01.622Z,7.00
2022-11-30T17:40:47.281Z,6.90
2022-11-30T17:43:33.166Z,6.90
2022-11-30T17:46:24.180Z,6.90
2022-11-30T17:49:12.491Z,6.90
2022-11-30T17:51:57.986Z,6.80
2022-11-30T17:54:43.201Z,6.80
2022-11-30T17:57:28.658Z,6.80
2022-11-30T18:00:14.393Z,6.80
2022-11-30T18:03:00.382Z,6.80
2022-11-30T18:05:45.490Z,6.70
2022-11-30T18:08:34.347Z,6.70
2022-11-30T18:11:25.063Z,6.70
2022-11-30T18:14:10.736Z,6.70
2022-11-30T18:16:56.230Z,6.70
2022-11-30T18:19:48.194Z,6.60
2022-11-30T18:22:36.681Z,6.60
2022-11-30T18:25:32.746Z,6.60
2022-11-30T18:28:18.331Z,6.60
2022-11-30T18:31:06.551Z,6.60
2022-11-30T18:34:15.800Z,6.50
2022-11-30T18:37:01.594Z,6.50
2022-11-30T18:39:49.726Z,6.50
2022-11-30T18:42:38.069Z,6.50
2022-11-30T18:45:23.614Z,6.50
2022-11-30T18:48:09.262Z,6.50
2022-11-30T18:51:16.873Z,6.50
2022-11-30T18:54:04.191Z,6.50
2022-11-30T18:56:49.418Z,6.50
2022-11-30T18:59:36.739Z,6.50
2022-11-30T19:02:31.307Z,6.50
2022-11-30T19:05:32.217Z,6.50
2022-11-30T19:08:17.505Z,6.50
2022-11-30T19:11:07.767Z,6.50
2022-11-30T19:13:54.792Z,6.50
2022-11-30T19:16:41.189Z,6.50
2022-11-30T19:19:26.422Z,6.60
2022-11-30T19:22:14.878Z,6.60
2022-11-30T19:25:00.421Z,6.60
2022-11-30T19:27:48.769Z,6.50
2022-11-30T19:30:35.660Z,6.50
2022-11-30T19:33:21.195Z,6.50
2022-11-30T19:36:10.184Z,6.50
2022-11-30T19:38:58.074Z,6.50
2022-11-30T19:41:43.402Z,6.50
2022-11-30T19:44:28.531Z,6.50
2022-11-30T19:47:16.770Z,6.60
2022-11-30T19:50:02.054Z,6.80
2022-11-30T19:52:47.547Z,6.90
2022-11-30T19:55:36.474Z,7.00
2022-11-30T19:58:21.747Z,7.20
2022-11-30T20:01:30.712Z,7.30
2022-11-30T20:04:16.171Z,7.30
2022-11-30T20:07:01.697Z,7.40
2022-11-30T20:09:47.013Z,7.50
2022-11-30T20:12:33.492Z,7.50
2022-11-30T20:15:19.310Z,7.60
2022-11-30T20:18:04.718Z,7.70
2022-11-30T20:20:50.270Z,7.70
2022-11-30T20:23:35.750Z,7.70
2022-11-30T20:26:25.911Z,7.80
2022-11-30T20:29:15.032Z,7.70
2022-11-30T20:32:00.469Z,7.60
2022-11-30T20:34:45.865Z,7.50
2022-11-30T20:37:32.562Z,7.40
2022-11-30T20:40:18.848Z,7.30
2022-11-30T20:43:04.341Z,7.10
2022-11-30T20:45:49.952Z,7.10
2022-11-30T20:48:35.566Z,7.00
2022-11-30T20:51:31.593Z,6.90
2022-11-30T20:54:17.745Z,6.90
2022-11-30T20:57:03.195Z,6.80
2022-11-30T20:59:48.754Z,6.70
2022-11-30T21:02:34.122Z,6.60
2022-11-30T21:05:19.842Z,6.50
2022-11-30T21:08:05.885Z,6.50
2022-11-30T21:10:51.226Z,6.50
2022-11-30T21:13:38.057Z,6.60
2022-11-30T21:16:28.153Z,6.80
2022-11-30T21:19:34.953Z,6.90
2022-11-30T21:22:20.763Z,7.00
2022-11-30T21:25:09.614Z,7.00
2022-11-30T21:27:55.257Z,7.00
2022-11-30T21:30:40.613Z,6.90
2022-11-30T21:33:26.091Z,6.80
2022-11-30T21:36:14.018Z,6.70
2022-11-30T21:39:06.075Z,6.60
2022-11-30T21:41:52.035Z,6.60
2022-11-30T21:44:37.692Z,6.60
2022-11-30T21:47:23.170Z,6.60
2022-11-30T21:50:09.297Z,6.70
2022-11-30T21:52:54.878Z,6.70
2022-11-30T21:55:40.216Z,6.80
2022-11-30T21:58:25.953Z,6.70
2022-11-30T22:01:19.958Z,6.70
2022-11-30T22:04:09.762Z,6.70
2022-11-30T22:06:55.346Z,6.60
2022-11-30T22:09:40.928Z,6.60
2022-11-30T22:12:26.587Z,6.60
2022-11-30T22:15:12.022Z,6.60
2022-11-30T22:17:57.281Z,6.60
2022-11-30T22:20:43.070Z,6.60
2022-11-30T22:23:28.456Z,6.50
2022-11-30T22:26:15.201Z,6.50
2022-11-30T22:29:11.714Z,6.50
2022-11-30T22:31:56.989Z,6.50
2022-11-30T22:34:42.591Z,6.40
2022-11-30T22:37:28.310Z,6.40
2022-11-30T22:40:14.055Z,6.40
2022-11-30T22:42:59.742Z,6.40
2022-11-30T22:45:45.345Z,6.40
2022-11-30T22:48:33.200Z,6.40
2022-11-30T22:51:21.388Z,6.40
2022-11-30T22:54:07.423Z,6.30
2022-11-30T22:56:53.085Z,6.30
2022-11-30T22:59:41.626Z,6.30
2022-11-30T23:02:27.085Z,6.20
2022-11-30T23:05:15.205Z,6.20
2022-11-30T23:08:01.237Z,6.20
2022-11-30T23:10:46.887Z,6.20
2022-11-30T23:13:32.853Z,6.20
2022-11-30T23:16:19.447Z,6.20
2022-11-30T23:19:05.676Z,6.10
2022-11-30T23:21:51.458Z,6.10
2022-11-30T23:24:37.642Z,6.10
2022-11-30T23:27:23.009Z,6.10
2022-11-30T23:30:11.682Z,6.10
2022-11-30T23:32:57.241Z,6.10
2022-11-30T23:35:43.669Z,6.10
2022-11-30T23:38:29.025Z,6.00
2022-11-30T23:41:15.815Z,6.00
2022-11-30T23:44:01.425Z,6.00
2022-11-30T23:46:46.993Z,6.00
2022-11-30T23:49:32.510Z,6.00
2022-11-30T23:52:17.680Z,6.00
2022-11-30T23:55:03.435Z,6.00
2022-11-30T23:57:49.117Z,6.00
